Time,TemperatureF,DewpointF,PressureIn,WindDirection,WindDirectionDegrees,WindSpeedMPH,WindSpeedGustMPH,Humidity,HourlyPrecipIn,Conditions,Clouds,dailyrainin,SoftwareType,DateUTC
2013-03-16 00:04:00,47.8,46.2,29.58,NNW,334,0.0,0.0,94,0.00,,,0.00,Wunderground v.1.15,2013-03-16 07:04:00,
2013-03-16 00:09:00,47.6,46.0,29.58,NNW,334,0.0,0.0,94,0.00,,,0.00,Wunderground v.1.15,2013-03-16 07:09:00,
2013-03-16 00:14:00,47.4,45.8,29.58,NNW,334,0.0,0.0,94,0.00,,,0.00,Wunderground v.1.15,2013-03-16 07:14:00,
2013-03-16 00:20:00,47.1,45.5,29.59,NNW,334,0.0,0.0,94,0.00,,,0.00,Wunderground v.1.15,2013-03-16 07:20:00,
2013-03-16 00:26:00,47.0,45.4,29.59,WNW,295,0.0,0.0,94,0.00,,,0.00,Wunderground v.1.15,2013-03-16 07:26:00,
2013-03-16 00:31:00,47.3,45.9,29.59,SSW,209,0.0,0.0,95,0.00,,,0.00,Wunderground v.1.15,2013-03-16 07:31:00,
2013-03-16 00:37:00,47.6,46.2,29.59,SSW,205,0.0,0.0,95,0.00,,,0.00,Wunderground v.1.15,2013-03-16 07:37:00,
2013-03-16 00:42:00,47.4,46.0,29.59,SSW,205,0.0,0.0,95,0.00,,,0.00,Wunderground v.1.15,2013-03-16 07:42:00,
2013-03-16 00:47:00,47.2,45.6,29.59,WSW,245,0.0,1.0,94,0.00,,,0.00,Wunderground v.1.15,2013-03-16 07:47:00,
2013-03-16 00:53:00,47.3,45.9,29.60,WSW,240,0.0,1.0,95,0.00,,,0.00,Wunderground v.1.15,2013-03-16 07:53:00,
2013-03-16 00:58:00,47.9,46.8,29.60,SW,221,1.0,2.0,96,0.00,,,0.00,Wunderground v.1.15,2013-03-16 07:58:00,
2013-03-16 01:04:00,48.7,47.9,29.60,SW,225,1.0,1.0,97,0.00,,,0.00,Wunderground v.1.15,2013-03-16 08:04:00,
2013-03-16 01:09:00,49.2,48.4,29.60,SW,215,2.0,5.0,97,0.00,,,0.00,Wunderground v.1.15,2013-03-16 08:09:00,
2013-03-16 01:14:00,49.6,48.8,29.60,SW,226,2.0,3.0,97,0.00,,,0.00,Wunderground v.1.15,2013-03-16 08:14:00,
2013-03-16 01:19:00,49.9,49.1,29.60,SSW,209,2.0,3.0,97,0.00,,,0.00,Wunderground v.1.15,2013-03-16 08:19:00,
2013-03-16 01:25:00,50.0,49.2,29.60,SW,223,2.0,6.0,97,0.00,,,0.00,Wunderground v.1.15,2013-03-16 08:25:00,
2013-03-16 01:30:00,50.2,49.4,29.60,WSW,247,3.0,4.0,97,0.00,,,0.00,Wunderground v.1.15,2013-03-16 08:30:00,
2013-03-16 01:36:00,50.4,49.6,29.60,WSW,244,2.0,5.0,97,0.00,,,0.00,Wunderground v.1.15,2013-03-16 08:36:00,
2013-03-16 01:42:00,50.4,49.6,29.60,SSW,213,2.0,4.0,97,0.00,,,0.00,Wunderground v.1.15,2013-03-16 08:42:00,
2013-03-16 01:47:00,50.5,49.7,29.60,WSW,240,2.0,5.0,97,0.00,,,0.00,Wunderground v.1.15,2013-03-16 08:47:00,
2013-03-16 01:53:00,50.5,49.7,29.60,WSW,239,3.0,5.0,97,0.00,,,0.00,Wunderground v.1.15,2013-03-16 08:53:00,
2013-03-16 01:58:00,50.5,49.7,29.60,SW,214,2.0,5.0,97,0.00,,,0.00,Wunderground v.1.15,2013-03-16 08:58:00,
2013-03-16 02:04:00,50.6,49.8,29.60,WSW,243,1.0,2.0,97,0.00,,,0.00,Wunderground v.1.15,2013-03-16 09:04:00,
2013-03-16 02:09:00,50.6,49.8,29.60,WSW,242,1.0,1.0,97,0.00,,,0.00,Wunderground v.1.15,2013-03-16 09:09:00,
2013-03-16 02:15:00,50.6,49.8,29.60,WSW,244,1.0,2.0,97,0.00,,,0.00,Wunderground v.1.15,2013-03-16 09:15:00,
2013-03-16 02:21:00,50.6,49.8,29.60,WSW,247,1.0,1.0,97,0.00,,,0.00,Wunderground v.1.15,2013-03-16 09:21:00,
2013-03-16 02:26:00,50.6,49.8,29.60,WSW,247,0.0,1.0,97,0.00,,,0.00,Wunderground v.1.15,2013-03-16 09:26:00,
2013-03-16 02:32:00,50.7,49.9,29.60,WSW,247,0.0,0.0,97,0.00,,,0.00,Wunderground v.1.15,2013-03-16 09:32:00,
2013-03-16 02:37:00,50.6,49.8,29.59,NW,304,0.0,2.0,97,0.00,,,0.00,Wunderground v.1.15,2013-03-16 09:37:00,
2013-03-16 02:42:00,50.4,49.6,29.59,NW,305,1.0,1.0,97,0.00,,,0.00,Wunderground v.1.15,2013-03-16 09:42:00,
2013-03-16 02:47:00,50.2,49.4,29.59,NW,305,0.0,1.0,97,0.00,,,0.00,Wunderground v.1.15,2013-03-16 09:47:00,
2013-03-16 02:53:00,50.1,49.3,29.59,NW,305,0.0,1.0,97,0.00,,,0.00,Wunderground v.1.15,2013-03-16 09:53:00,
2013-03-16 02:58:00,50.0,49.2,29.59,NW,313,0.0,1.0,97,0.00,,,0.00,Wunderground v.1.15,2013-03-16 09:58:00,
2013-03-16 03:03:00,49.9,49.1,29.59,NW,313,0.0,0.0,97,0.00,,,0.00,Wunderground v.1.15,2013-03-16 10:03:00,
2013-03-16 03:09:00,50.0,49.2,29.58,NW,304,0.0,0.0,97,0.00,,,0.00,Wunderground v.1.15,2013-03-16 10:09:00,
2013-03-16 03:15:00,50.0,49.2,29.58,NW,304,0.0,1.0,97,0.00,,,0.00,Wunderground v.1.15,2013-03-16 10:15:00,
2013-03-16 03:21:00,50.1,49.3,29.58,NW,304,0.0,0.0,97,0.00,,,0.00,Wunderground v.1.15,2013-03-16 10:21:00,
2013-03-16 03:27:00,50.1,49.3,29.58,NW,304,0.0,0.0,97,0.00,,,0.00,Wunderground v.1.15,2013-03-16 10:27:00,
2013-03-16 03:33:00,50.2,49.4,29.58,NW,304,0.0,0.0,97,0.00,,,0.00,Wunderground v.1.15,2013-03-16 10:33:00,
2013-03-16 03:39:00,50.2,49.4,29.58,NW,304,0.0,0.0,97,0.00,,,0.00,Wunderground v.1.15,2013-03-16 10:39:00,
2013-03-16 03:44:00,50.2,49.4,29.58,NNE,22,0.0,1.0,97,0.00,,,0.00,Wunderground v.1.15,2013-03-16 10:44:00,
2013-03-16 03:50:00,50.2,49.4,29.58,NNE,22,0.0,0.0,97,0.00,,,0.00,Wunderground v.1.15,2013-03-16 10:50:00,
2013-03-16 03:55:00,50.1,49.3,29.58,NNE,20,0.0,0.0,97,0.00,,,0.00,Wunderground v.1.15,2013-03-16 10:55:00,
2013-03-16 04:01:00,50.0,49.2,29.58,North,5,0.0,0.0,97,0.00,,,0.00,Wunderground v.1.15,2013-03-16 11:01:00,
2013-03-16 04:06:00,49.7,48.9,29.58,NNW,341,1.0,1.0,97,0.00,,,0.00,Wunderground v.1.15,2013-03-16 11:06:00,
2013-03-16 04:12:00,49.6,48.8,29.58,NNW,338,1.0,2.0,97,0.00,,,0.00,Wunderground v.1.15,2013-03-16 11:12:00,
2013-03-16 04:17:00,49.5,48.7,29.58,NNW,341,1.0,2.0,97,0.00,,,0.00,Wunderground v.1.15,2013-03-16 11:17:00,
2013-03-16 04:23:00,49.5,48.7,29.58,NNW,341,0.0,0.0,97,0.00,,,0.00,Wunderground v.1.15,2013-03-16 11:23:00,
2013-03-16 04:29:00,49.5,48.7,29.58,NNW,341,0.0,0.0,97,0.00,,,0.00,Wunderground v.1.15,2013-03-16 11:29:00,
2013-03-16 04:35:00,49.6,49.1,29.58,NNW,341,0.0,0.0,98,0.00,,,0.00,Wunderground v.1.15,2013-03-16 11:35:00,
2013-03-16 04:40:00,49.6,49.1,29.58,NNW,341,0.0,0.0,98,0.00,,,0.00,Wunderground v.1.15,2013-03-16 11:40:00,
2013-03-16 04:45:00,49.7,49.2,29.58,NW,308,0.0,1.0,98,0.00,,,0.00,Wunderground v.1.15,2013-03-16 11:45:00,
2013-03-16 04:52:00,49.9,49.4,29.57,NW,308,0.0,0.0,98,0.00,,,0.00,Wunderground v.1.15,2013-03-16 11:52:00,
2013-03-16 04:58:00,50.0,49.5,29.58,WSW,254,0.0,4.0,98,0.00,,,0.00,Wunderground v.1.15,2013-03-16 11:58:00,
2013-03-16 05:03:00,50.0,49.5,29.58,WSW,249,1.0,2.0,98,0.00,,,0.00,Wunderground v.1.15,2013-03-16 12:03:00,
2013-03-16 05:09:00,49.9,49.1,29.58,WSW,249,1.0,2.0,97,0.00,,,0.00,Wunderground v.1.15,2013-03-16 12:09:00,
2013-03-16 05:14:00,49.9,49.1,29.58,WSW,249,0.0,1.0,97,0.00,,,0.00,Wunderground v.1.15,2013-03-16 12:14:00,
2013-03-16 05:19:00,49.8,49.0,29.58,West,278,0.0,1.0,97,0.00,,,0.00,Wunderground v.1.15,2013-03-16 12:19:00,
2013-03-16 05:25:00,49.6,48.8,29.58,NW,323,0.0,1.0,97,0.00,,,0.00,Wunderground v.1.15,2013-03-16 12:25:00,
2013-03-16 05:31:00,49.5,48.7,29.58,NW,324,0.0,0.0,97,0.00,,,0.00,Wunderground v.1.15,2013-03-16 12:31:00,
2013-03-16 05:36:00,49.4,48.6,29.58,WNW,296,0.0,1.0,97,0.00,,,0.00,Wunderground v.1.15,2013-03-16 12:36:00,
2013-03-16 05:41:00,49.4,48.6,29.58,WNW,296,0.0,0.0,97,0.00,,,0.00,Wunderground v.1.15,2013-03-16 12:41:00,
2013-03-16 05:47:00,49.3,48.5,29.58,WNW,299,0.0,1.0,97,0.00,,,0.00,Wunderground v.1.15,2013-03-16 12:47:00,
2013-03-16 05:52:00,49.3,48.5,29.58,NW,311,0.0,1.0,97,0.00,,,0.00,Wunderground v.1.15,2013-03-16 12:52:00,
2013-03-16 05:58:00,49.0,48.2,29.58,NW,325,1.0,1.0,97,0.00,,,0.00,Wunderground v.1.15,2013-03-16 12:58:00,
2013-03-16 06:03:00,48.9,48.1,29.58,NW,325,0.0,1.0,97,0.00,,,0.00,Wunderground v.1.15,2013-03-16 13:03:00,
2013-03-16 06:08:00,49.0,48.5,29.58,NNW,336,0.0,2.0,98,0.00,,,0.00,Wunderground v.1.15,2013-03-16 13:08:00,
2013-03-16 06:15:00,49.1,48.6,29.58,NNW,340,0.0,0.0,98,0.00,,,0.00,Wunderground v.1.15,2013-03-16 13:15:00,
2013-03-16 06:21:00,49.1,48.6,29.58,NNW,340,0.0,0.0,98,0.00,,,0.00,Wunderground v.1.15,2013-03-16 13:21:00,
2013-03-16 06:26:00,49.1,48.6,29.58,NNW,340,0.0,1.0,98,0.00,,,0.00,Wunderground v.1.15,2013-03-16 13:26:00,
2013-03-16 06:32:00,49.1,48.6,29.58,North,9,0.0,2.0,98,0.00,,,0.00,Wunderground v.1.15,2013-03-16 13:32:00,
2013-03-16 06:37:00,49.1,48.6,29.58,NNW,342,1.0,2.0,98,0.00,,,0.00,Wunderground v.1.15,2013-03-16 13:37:00,
2013-03-16 06:43:00,49.1,48.6,29.58,NNW,342,1.0,2.0,98,0.00,,,0.00,Wunderground v.1.15,2013-03-16 13:43:00,
2013-03-16 06:48:00,49.0,48.5,29.59,NNW,331,1.0,2.0,98,0.00,,,0.00,Wunderground v.1.15,2013-03-16 13:48:00,
2013-03-16 06:54:00,49.0,48.5,29.59,ENE,70,0.0,2.0,98,0.00,,,0.00,Wunderground v.1.15,2013-03-16 13:54:00,
2013-03-16 07:00:00,49.0,48.5,29.59,East,100,1.0,1.0,98,0.00,,,0.00,Wunderground v.1.15,2013-03-16 14:00:00,
2013-03-16 07:05:00,49.1,48.6,29.59,NE,51,1.0,2.0,98,0.00,,,0.00,Wunderground v.1.15,2013-03-16 14:05:00,
2013-03-16 07:10:00,48.9,48.4,29.59,East,81,0.0,0.0,98,0.00,,,0.00,Wunderground v.1.15,2013-03-16 14:10:00,
2013-03-16 07:16:00,48.9,48.4,29.58,East,82,0.0,2.0,98,0.00,,,0.00,Wunderground v.1.15,2013-03-16 14:16:00,
2013-03-16 07:21:00,48.9,48.4,29.59,East,83,0.0,1.0,98,0.00,,,0.00,Wunderground v.1.15,2013-03-16 14:21:00,
2013-03-16 07:27:00,48.8,48.3,29.58,NE,42,0.0,2.0,98,0.00,,,0.00,Wunderground v.1.15,2013-03-16 14:27:00,
2013-03-16 07:32:00,48.8,48.3,29.59,NE,42,0.0,0.0,98,0.00,,,0.01,Wunderground v.1.15,2013-03-16 14:32:00,
2013-03-16 07:37:00,48.7,48.2,29.59,North,5,0.0,1.0,98,0.00,,,0.01,Wunderground v.1.15,2013-03-16 14:37:00,
2013-03-16 07:43:00,48.7,48.2,29.59,North,5,0.0,0.0,98,0.00,,,0.01,Wunderground v.1.15,2013-03-16 14:43:00,
2013-03-16 07:49:00,48.7,48.2,29.59,North,9,0.0,1.0,98,0.00,,,0.01,Wunderground v.1.15,2013-03-16 14:49:00,
2013-03-16 07:54:00,48.7,48.2,29.59,North,10,0.0,0.0,98,0.00,,,0.01,Wunderground v.1.15,2013-03-16 14:54:00,
2013-03-16 07:59:00,48.7,48.2,29.59,North,10,0.0,0.0,98,0.00,,,0.01,Wunderground v.1.15,2013-03-16 14:59:00,
2013-03-16 08:04:00,48.7,48.2,29.59,ENE,71,0.0,1.0,98,0.00,,,0.01,Wunderground v.1.15,2013-03-16 15:04:00,
2013-03-16 08:09:00,48.7,48.2,29.59,ENE,76,0.0,0.0,98,0.00,,,0.01,Wunderground v.1.15,2013-03-16 15:09:00,
2013-03-16 08:15:00,48.7,48.2,29.60,ENE,76,0.0,0.0,98,0.00,,,0.01,Wunderground v.1.15,2013-03-16 15:15:00,
2013-03-16 08:20:00,48.7,48.2,29.60,ENE,78,0.0,0.0,98,0.00,,,0.01,Wunderground v.1.15,2013-03-16 15:20:00,
2013-03-16 08:25:00,48.8,48.3,29.61,SW,214,0.0,2.0,98,0.00,,,0.01,Wunderground v.1.15,2013-03-16 15:25:00,
2013-03-16 08:31:00,48.8,48.3,29.60,SW,214,0.0,1.0,98,0.00,,,0.01,Wunderground v.1.15,2013-03-16 15:31:00,
2013-03-16 08:37:00,48.9,48.4,29.60,WSW,250,0.0,2.0,98,0.00,,,0.01,Wunderground v.1.15,2013-03-16 15:37:00,
2013-03-16 08:42:00,49.0,48.5,29.60,West,281,1.0,1.0,98,0.00,,,0.01,Wunderground v.1.15,2013-03-16 15:42:00,
2013-03-16 08:48:00,48.9,48.4,29.61,WNW,291,0.0,1.0,98,0.00,,,0.01,Wunderground v.1.15,2013-03-16 15:48:00,
2013-03-16 08:53:00,49.1,48.6,29.61,WNW,291,0.0,0.0,98,0.00,,,0.01,Wunderground v.1.15,2013-03-16 15:53:00,
2013-03-16 08:59:00,49.3,48.8,29.61,SW,229,0.0,2.0,98,0.00,,,0.01,Wunderground v.1.15,2013-03-16 15:59:00,
2013-03-16 09:05:00,49.5,49.0,29.61,SSW,204,1.0,3.0,98,0.00,,,0.01,Wunderground v.1.15,2013-03-16 16:05:00,
2013-03-16 09:10:00,49.4,48.9,29.61,WSW,252,1.0,1.0,98,0.00,,,0.01,Wunderground v.1.15,2013-03-16 16:10:00,
2013-03-16 09:17:00,49.7,49.2,29.61,SW,225,1.0,2.0,98,0.00,,,0.01,Wunderground v.1.15,2013-03-16 16:17:00,
2013-03-16 09:23:00,49.8,49.3,29.61,WSW,242,1.0,2.0,98,0.00,,,0.01,Wunderground v.1.15,2013-03-16 16:23:00,
2013-03-16 09:29:00,49.8,49.3,29.62,South,182,2.0,3.0,98,0.00,,,0.01,Wunderground v.1.15,2013-03-16 16:29:00,
2013-03-16 09:35:00,50.0,49.5,29.62,SW,236,2.0,4.0,98,0.00,,,0.01,Wunderground v.1.15,2013-03-16 16:35:00,
2013-03-16 09:40:00,49.9,49.4,29.62,SW,225,2.0,3.0,98,0.00,,,0.01,Wunderground v.1.15,2013-03-16 16:40:00,
2013-03-16 09:45:00,50.0,49.5,29.62,SSW,198,2.0,4.0,98,0.00,,,0.01,Wunderground v.1.15,2013-03-16 16:45:00,
2013-03-16 09:50:00,50.2,49.7,29.62,SSW,205,2.0,2.0,98,0.00,,,0.01,Wunderground v.1.15,2013-03-16 16:50:00,
2013-03-16 09:56:00,50.2,49.7,29.62,South,190,2.0,5.0,98,0.00,,,0.01,Wunderground v.1.15,2013-03-16 16:56:00,
2013-03-16 10:02:00,50.5,50.0,29.62,SSW,204,3.0,3.0,98,0.00,,,0.01,Wunderground v.1.15,2013-03-16 17:02:00,
2013-03-16 10:08:00,50.6,49.8,29.62,SSW,211,2.0,6.0,97,0.00,,,0.01,Wunderground v.1.15,2013-03-16 17:08:00,
2013-03-16 10:13:00,50.9,50.1,29.62,SSE,162,2.0,2.0,97,0.00,,,0.01,Wunderground v.1.15,2013-03-16 17:13:00,
2013-03-16 10:19:00,51.0,49.9,29.61,South,180,2.0,3.0,96,0.00,,,0.01,Wunderground v.1.15,2013-03-16 17:19:00,
2013-03-16 10:25:00,51.3,50.2,29.61,South,182,2.0,4.0,96,0.00,,,0.01,Wunderground v.1.15,2013-03-16 17:25:00,
2013-03-16 10:31:00,51.6,50.2,29.61,South,176,2.0,5.0,95,0.00,,,0.01,Wunderground v.1.15,2013-03-16 17:31:00,
2013-03-16 10:37:00,52.1,50.7,29.61,SW,225,2.0,5.0,95,0.00,,,0.01,Wunderground v.1.15,2013-03-16 17:37:00,
2013-03-16 10:42:00,52.6,50.9,29.61,SW,219,1.0,2.0,94,0.00,,,0.01,Wunderground v.1.15,2013-03-16 17:42:00,
2013-03-16 10:48:00,53.2,51.2,29.61,South,181,2.0,5.0,93,0.00,,,0.01,Wunderground v.1.15,2013-03-16 17:48:00,
2013-03-16 10:53:00,53.8,51.2,29.61,SW,218,3.0,6.0,91,0.00,,,0.01,Wunderground v.1.15,2013-03-16 17:53:00,
2013-03-16 10:59:00,54.4,51.5,29.61,WSW,250,3.0,6.0,90,0.00,,,0.01,Wunderground v.1.15,2013-03-16 17:59:00,
2013-03-16 11:04:00,54.9,52.0,29.61,SW,216,4.0,6.0,90,0.00,,,0.01,Wunderground v.1.15,2013-03-16 18:04:00,
2013-03-16 11:10:00,55.2,51.7,29.61,SW,214,3.0,6.0,88,0.00,,,0.01,Wunderground v.1.15,2013-03-16 18:10:00,
2013-03-16 11:16:00,55.8,52.3,29.61,WSW,258,4.0,7.0,88,0.00,,,0.01,Wunderground v.1.15,2013-03-16 18:16:00,
2013-03-16 11:22:00,56.5,52.7,29.61,SSW,203,4.0,5.0,87,0.00,,,0.01,Wunderground v.1.15,2013-03-16 18:22:00,
2013-03-16 11:27:00,57.0,52.5,29.60,WSW,240,4.0,5.0,85,0.00,,,0.01,Wunderground v.1.15,2013-03-16 18:27:00,
2013-03-16 11:33:00,57.5,53.0,29.60,SW,215,4.0,4.0,85,0.00,,,0.01,Wunderground v.1.15,2013-03-16 18:33:00,
2013-03-16 11:38:00,57.9,53.4,29.60,SW,214,4.0,7.0,85,0.00,,,0.01,Wunderground v.1.15,2013-03-16 18:38:00,
2013-03-16 11:44:00,58.4,52.9,29.60,SSW,196,4.0,5.0,82,0.00,,,0.01,Wunderground v.1.15,2013-03-16 18:44:00,
2013-03-16 11:50:00,58.1,52.3,29.60,South,171,5.0,5.0,81,0.00,,,0.01,Wunderground v.1.15,2013-03-16 18:50:00,
2013-03-16 11:56:00,58.8,53.6,29.60,SSW,196,4.0,6.0,83,0.00,,,0.01,Wunderground v.1.15,2013-03-16 18:56:00,
2013-03-16 12:02:00,59.5,53.7,29.60,WSW,247,4.0,5.0,81,0.00,,,0.01,Wunderground v.1.15,2013-03-16 19:02:00,
2013-03-16 12:07:00,59.9,53.4,29.60,WSW,248,4.0,9.0,79,0.00,,,0.01,Wunderground v.1.15,2013-03-16 19:07:00,
2013-03-16 12:13:00,60.2,53.7,29.60,SW,236,4.0,6.0,79,0.00,,,0.01,Wunderground v.1.15,2013-03-16 19:13:00,
2013-03-16 12:18:00,60.5,53.6,29.60,South,188,4.0,9.0,78,0.00,,,0.01,Wunderground v.1.15,2013-03-16 19:18:00,
2013-03-16 12:24:00,60.9,54.0,29.60,SW,214,5.0,8.0,78,0.00,,,0.01,Wunderground v.1.15,2013-03-16 19:24:00,
2013-03-16 12:29:00,61.1,53.8,29.59,SSW,209,5.0,5.0,77,0.00,,,0.01,Wunderground v.1.15,2013-03-16 19:29:00,
2013-03-16 12:35:00,61.2,53.6,29.59,SW,232,5.0,11.0,76,0.00,,,0.01,Wunderground v.1.15,2013-03-16 19:35:00,
2013-03-16 12:41:00,61.6,53.6,29.59,SSW,196,5.0,9.0,75,0.00,,,0.01,Wunderground v.1.15,2013-03-16 19:41:00,
2013-03-16 12:47:00,62.0,53.6,29.59,WSW,247,5.0,9.0,74,0.00,,,0.01,Wunderground v.1.15,2013-03-16 19:47:00,
2013-03-16 12:52:00,62.2,54.2,29.58,WSW,251,5.0,8.0,75,0.00,,,0.01,Wunderground v.1.15,2013-03-16 19:52:00,
2013-03-16 12:57:00,62.4,53.6,29.58,WSW,253,5.0,9.0,73,0.00,,,0.01,Wunderground v.1.15,2013-03-16 19:57:00,
2013-03-16 13:02:00,62.7,53.9,29.58,West,271,5.0,6.0,73,0.00,,,0.01,Wunderground v.1.15,2013-03-16 20:02:00,
2013-03-16 13:08:00,62.8,54.0,29.58,SW,227,6.0,11.0,73,0.00,,,0.01,Wunderground v.1.15,2013-03-16 20:08:00,
2013-03-16 13:14:00,62.4,53.6,29.58,SW,234,7.0,9.0,73,0.00,,,0.01,Wunderground v.1.15,2013-03-16 20:14:00,
2013-03-16 13:19:00,62.5,54.5,29.57,SW,221,6.0,9.0,75,0.00,,,0.01,Wunderground v.1.15,2013-03-16 20:19:00,
2013-03-16 13:25:00,62.8,54.4,29.58,SW,219,6.0,13.0,74,0.00,,,0.01,Wunderground v.1.15,2013-03-16 20:25:00,
2013-03-16 13:31:00,62.4,53.6,29.57,SW,232,6.0,9.0,73,0.00,,,0.01,Wunderground v.1.15,2013-03-16 20:31:00,
2013-03-16 13:37:00,62.9,54.5,29.57,SW,220,6.0,9.0,74,0.00,,,0.01,Wunderground v.1.15,2013-03-16 20:37:00,
2013-03-16 13:43:00,63.7,54.9,29.56,SSE,161,4.0,5.0,73,0.00,,,0.01,Wunderground v.1.15,2013-03-16 20:43:00,
2013-03-16 13:48:00,63.7,54.9,29.57,SSE,162,3.0,5.0,73,0.00,,,0.01,Wunderground v.1.15,2013-03-16 20:48:00,
2013-03-16 13:54:00,64.1,54.1,29.56,WSW,242,4.0,10.0,70,0.00,,,0.01,Wunderground v.1.15,2013-03-16 20:54:00,
2013-03-16 13:59:00,64.4,54.0,29.56,West,259,5.0,5.0,69,0.00,,,0.01,Wunderground v.1.15,2013-03-16 20:59:00,
2013-03-16 14:05:00,64.9,54.9,29.55,South,188,5.0,5.0,70,0.00,,,0.01,Wunderground v.1.15,2013-03-16 21:05:00,
2013-03-16 14:11:00,65.2,54.4,29.55,SW,233,4.0,8.0,68,0.00,,,0.01,Wunderground v.1.15,2013-03-16 21:11:00,
2013-03-16 14:16:00,65.1,54.7,29.55,WSW,241,4.0,8.0,69,0.00,,,0.01,Wunderground v.1.15,2013-03-16 21:16:00,
2013-03-16 14:21:00,65.0,54.2,29.55,South,186,5.0,9.0,68,0.00,,,0.01,Wunderground v.1.15,2013-03-16 21:21:00,
2013-03-16 14:26:00,64.9,54.9,29.55,SW,217,6.0,9.0,70,0.00,,,0.01,Wunderground v.1.15,2013-03-16 21:26:00,
2013-03-16 14:32:00,64.7,54.3,29.54,South,181,5.0,5.0,69,0.00,,,0.01,Wunderground v.1.15,2013-03-16 21:32:00,
2013-03-16 14:37:00,64.2,53.4,29.54,WSW,245,5.0,10.0,68,0.00,,,0.01,Wunderground v.1.15,2013-03-16 21:37:00,
2013-03-16 14:42:00,64.2,53.8,29.54,West,262,5.0,9.0,69,0.00,,,0.01,Wunderground v.1.15,2013-03-16 21:42:00,
2013-03-16 14:48:00,64.5,54.1,29.54,WSW,247,5.0,9.0,69,0.00,,,0.01,Wunderground v.1.15,2013-03-16 21:48:00,
2013-03-16 14:53:00,65.1,54.7,29.54,SSE,168,4.0,7.0,69,0.00,,,0.01,Wunderground v.1.15,2013-03-16 21:53:00,
2013-03-16 14:59:00,65.1,54.3,29.53,SSW,212,4.0,7.0,68,0.00,,,0.01,Wunderground v.1.15,2013-03-16 21:59:00,
2013-03-16 15:04:00,64.9,54.5,29.53,WSW,244,5.0,6.0,69,0.00,,,0.01,Wunderground v.1.15,2013-03-16 22:04:00,
2013-03-16 15:10:00,65.1,53.9,29.53,SW,215,5.0,7.0,67,0.00,,,0.01,Wunderground v.1.15,2013-03-16 22:10:00,
2013-03-16 15:16:00,65.2,54.4,29.53,SSW,209,5.0,7.0,68,0.00,,,0.01,Wunderground v.1.15,2013-03-16 22:16:00,
2013-03-16 15:21:00,65.1,53.5,29.53,WSW,253,5.0,9.0,66,0.00,,,0.01,Wunderground v.1.15,2013-03-16 22:21:00,
2013-03-16 15:27:00,65.0,54.2,29.53,SW,218,5.0,9.0,68,0.00,,,0.01,Wunderground v.1.15,2013-03-16 22:27:00,
2013-03-16 15:32:00,64.9,53.7,29.53,SW,225,5.0,9.0,67,0.00,,,0.01,Wunderground v.1.15,2013-03-16 22:32:00,
2013-03-16 15:38:00,64.7,53.5,29.53,WSW,238,5.0,9.0,67,0.00,,,0.01,Wunderground v.1.15,2013-03-16 22:38:00,
2013-03-16 15:43:00,64.6,53.8,29.53,WSW,249,6.0,11.0,68,0.00,,,0.01,Wunderground v.1.15,2013-03-16 22:43:00,
2013-03-16 15:49:00,63.9,52.7,29.53,WSW,240,7.0,11.0,67,0.00,,,0.01,Wunderground v.1.15,2013-03-16 22:49:00,
2013-03-16 15:54:00,63.6,52.8,29.53,WSW,253,7.0,9.0,68,0.00,,,0.01,Wunderground v.1.15,2013-03-16 22:54:00,
2013-03-16 16:00:00,63.3,52.6,29.53,WSW,247,7.0,7.0,68,0.00,,,0.01,Wunderground v.1.15,2013-03-16 23:00:00,
2013-03-16 16:06:00,63.3,53.0,29.53,SSW,202,6.0,8.0,69,0.00,,,0.01,Wunderground v.1.15,2013-03-16 23:06:00,
2013-03-16 16:11:00,63.4,53.0,29.53,WSW,250,5.0,6.0,69,0.00,,,0.01,Wunderground v.1.15,2013-03-16 23:11:00,
2013-03-16 16:17:00,63.3,53.0,29.53,WSW,238,5.0,6.0,69,0.00,,,0.01,Wunderground v.1.15,2013-03-16 23:17:00,
2013-03-16 16:23:00,62.8,52.5,29.53,SW,229,6.0,12.0,69,0.00,,,0.01,Wunderground v.1.15,2013-03-16 23:23:00,
2013-03-16 16:28:00,62.4,52.1,29.53,West,269,6.0,12.0,69,0.00,,,0.01,Wunderground v.1.15,2013-03-16 23:28:00,
2013-03-16 16:34:00,62.1,52.6,29.53,WSW,237,6.0,10.0,71,0.00,,,0.01,Wunderground v.1.15,2013-03-16 23:34:00,
2013-03-16 16:39:00,62.3,52.4,29.53,SW,227,5.0,10.0,70,0.00,,,0.01,Wunderground v.1.15,2013-03-16 23:39:00,
2013-03-16 16:45:00,62.2,52.3,29.52,SSW,204,5.0,9.0,70,0.00,,,0.01,Wunderground v.1.15,2013-03-16 23:45:00,
2013-03-16 16:51:00,62.4,52.1,29.52,SW,214,4.0,4.0,69,0.00,,,0.01,Wunderground v.1.15,2013-03-16 23:51:00,
2013-03-16 16:56:00,62.5,52.2,29.52,SSW,192,3.0,5.0,69,0.00,,,0.01,Wunderground v.1.15,2013-03-16 23:56:00,
2013-03-16 17:01:00,62.6,52.3,29.52,WSW,242,3.0,5.0,69,0.00,,,0.01,Wunderground v.1.15,2013-03-17 00:01:00,
2013-03-16 17:06:00,62.8,52.9,29.52,South,173,3.0,5.0,70,0.00,,,0.01,Wunderground v.1.15,2013-03-17 00:06:00,
2013-03-16 17:12:00,63.0,52.3,29.52,WSW,254,3.0,6.0,68,0.00,,,0.01,Wunderground v.1.15,2013-03-17 00:12:00,
2013-03-16 17:17:00,63.0,52.3,29.52,SW,224,3.0,6.0,68,0.00,,,0.01,Wunderground v.1.15,2013-03-17 00:17:00,
2013-03-16 17:23:00,63.1,52.4,29.51,SSW,192,2.0,5.0,68,0.00,,,0.01,Wunderground v.1.15,2013-03-17 00:23:00,
2013-03-16 17:28:00,63.1,52.4,29.51,SSE,160,2.0,5.0,68,0.00,,,0.01,Wunderground v.1.15,2013-03-17 00:28:00,
2013-03-16 17:33:00,62.4,51.7,29.51,SW,217,3.0,4.0,68,0.00,,,0.01,Wunderground v.1.15,2013-03-17 00:33:00,
2013-03-16 17:38:00,62.1,52.2,29.51,SSW,210,3.0,5.0,70,0.00,,,0.01,Wunderground v.1.15,2013-03-17 00:38:00,
2013-03-16 17:44:00,62.3,52.4,29.52,SW,222,2.0,4.0,70,0.00,,,0.01,Wunderground v.1.15,2013-03-17 00:44:00,
2013-03-16 17:49:00,62.2,51.9,29.51,WSW,240,3.0,5.0,69,0.00,,,0.01,Wunderground v.1.15,2013-03-17 00:49:00,
2013-03-16 17:54:00,61.7,51.8,29.52,WSW,241,4.0,6.0,70,0.00,,,0.01,Wunderground v.1.15,2013-03-17 00:54:00,
2013-03-16 17:59:00,61.1,51.6,29.51,SSW,196,3.0,6.0,71,0.00,,,0.01,Wunderground v.1.15,2013-03-17 00:59:00,
2013-03-16 18:04:00,60.6,51.5,29.51,WSW,239,2.0,5.0,72,0.00,,,0.01,Wunderground v.1.15,2013-03-17 01:04:00,
2013-03-16 18:10:00,60.2,51.5,29.51,SW,221,3.0,3.0,73,0.00,,,0.01,Wunderground v.1.15,2013-03-17 01:10:00,
2013-03-16 18:16:00,59.8,51.5,29.51,SW,218,2.0,4.0,74,0.00,,,0.01,Wunderground v.1.15,2013-03-17 01:16:00,
2013-03-16 18:21:00,59.6,51.7,29.51,SW,225,2.0,2.0,75,0.00,,,0.01,Wunderground v.1.15,2013-03-17 01:21:00,
2013-03-16 18:27:00,59.2,51.3,29.52,SSW,206,2.0,3.0,75,0.00,,,0.01,Wunderground v.1.15,2013-03-17 01:27:00,
2013-03-16 18:33:00,58.8,51.2,29.52,SSW,211,3.0,6.0,76,0.00,,,0.01,Wunderground v.1.15,2013-03-17 01:33:00,
2013-03-16 18:39:00,58.3,50.8,29.52,SSW,208,3.0,6.0,76,0.00,,,0.01,Wunderground v.1.15,2013-03-17 01:39:00,
2013-03-16 18:44:00,57.9,50.7,29.52,SW,224,3.0,6.0,77,0.00,,,0.01,Wunderground v.1.15,2013-03-17 01:44:00,
2013-03-16 18:50:00,57.6,50.8,29.52,SW,223,3.0,3.0,78,0.00,,,0.01,Wunderground v.1.15,2013-03-17 01:50:00,
2013-03-16 18:55:00,57.4,50.9,29.52,SSW,211,2.0,3.0,79,0.00,,,0.01,Wunderground v.1.15,2013-03-17 01:55:00,
2013-03-16 19:00:00,57.1,50.6,29.52,SW,232,1.0,5.0,79,0.00,,,0.01,Wunderground v.1.15,2013-03-17 02:00:00,
2013-03-16 19:06:00,56.9,50.8,29.52,WSW,248,2.0,5.0,80,0.00,,,0.01,Wunderground v.1.15,2013-03-17 02:06:00,
2013-03-16 19:12:00,56.6,50.5,29.52,SW,236,1.0,3.0,80,0.00,,,0.01,Wunderground v.1.15,2013-03-17 02:12:00,
2013-03-16 19:17:00,56.3,50.5,29.52,SW,234,1.0,3.0,81,0.00,,,0.01,Wunderground v.1.15,2013-03-17 02:17:00,
2013-03-16 19:22:00,56.1,50.7,29.52,SW,234,0.0,1.0,82,0.00,,,0.01,Wunderground v.1.15,2013-03-17 02:22:00,
2013-03-16 19:28:00,55.9,50.5,29.52,SW,234,0.0,1.0,82,0.00,,,0.01,Wunderground v.1.15,2013-03-17 02:28:00,
2013-03-16 19:33:00,55.6,50.2,29.52,SW,234,0.0,0.0,82,0.00,,,0.01,Wunderground v.1.15,2013-03-17 02:33:00,
2013-03-16 19:38:00,55.2,50.1,29.52,SW,230,0.0,0.0,83,0.00,,,0.01,Wunderground v.1.15,2013-03-17 02:38:00,
2013-03-16 19:44:00,54.7,49.6,29.52,SW,230,0.0,0.0,83,0.00,,,0.01,Wunderground v.1.15,2013-03-17 02:44:00,
2013-03-16 19:49:00,54.2,49.1,29.52,SW,230,0.0,0.0,83,0.00,,,0.01,Wunderground v.1.15,2013-03-17 02:49:00,
2013-03-16 19:54:00,53.6,48.6,29.52,SW,230,0.0,0.0,83,0.00,,,0.01,Wunderground v.1.15,2013-03-17 02:54:00,
2013-03-16 20:00:00,53.1,48.7,29.53,WSW,240,0.0,0.0,85,0.00,,,0.01,Wunderground v.1.15,2013-03-17 03:00:00,
2013-03-16 20:06:00,52.6,48.2,29.53,WSW,240,0.0,0.0,85,0.00,,,0.01,Wunderground v.1.15,2013-03-17 03:06:00,
2013-03-16 20:11:00,52.2,48.1,29.53,WSW,240,0.0,0.0,86,0.00,,,0.01,Wunderground v.1.15,2013-03-17 03:11:00,
2013-03-16 20:17:00,51.8,47.7,29.54,WSW,250,0.0,1.0,86,0.00,,,0.01,Wunderground v.1.15,2013-03-17 03:17:00,
2013-03-16 20:23:00,51.4,47.7,29.54,NW,305,0.0,0.0,87,0.00,,,0.01,Wunderground v.1.15,2013-03-17 03:23:00,
2013-03-16 20:28:00,51.1,47.7,29.54,NW,305,0.0,0.0,88,0.00,,,0.01,Wunderground v.1.15,2013-03-17 03:28:00,
2013-03-16 20:33:00,50.8,47.1,29.55,NW,305,0.0,0.0,87,0.00,,,0.01,Wunderground v.1.15,2013-03-17 03:33:00,
2013-03-16 20:38:00,50.5,47.1,29.55,NW,305,0.0,0.0,88,0.00,,,0.01,Wunderground v.1.15,2013-03-17 03:38:00,
2013-03-16 20:43:00,50.2,47.1,29.55,NW,304,0.0,0.0,89,0.00,,,0.01,Wunderground v.1.15,2013-03-17 03:43:00,
2013-03-16 20:50:00,50.0,46.9,29.55,WNW,301,0.0,0.0,89,0.00,,,0.01,Wunderground v.1.15,2013-03-17 03:50:00,
2013-03-16 20:55:00,49.6,46.5,29.56,WNW,301,0.0,0.0,89,0.00,,,0.01,Wunderground v.1.15,2013-03-17 03:55:00,
2013-03-16 21:00:00,49.3,46.5,29.56,WNW,301,0.0,1.0,90,0.00,,,0.01,Wunderground v.1.15,2013-03-17 04:00:00,
2013-03-16 21:02:00,49.3,46.5,29.55,WNW,301,0.0,1.0,90,0.00,,,0.01,Wunderground v.1.15,2013-03-17 04:02:00,
2013-03-16 21:03:00,49.3,46.5,29.56,WNW,299,0.0,1.0,90,0.00,,,0.01,Wunderground v.1.15,2013-03-17 04:03:00,
2013-03-16 21:09:00,49.1,46.6,29.56,WNW,299,0.0,1.0,91,0.00,,,0.01,Wunderground v.1.15,2013-03-17 04:09:00,
2013-03-16 21:15:00,49.0,46.5,29.56,WNW,299,0.0,0.0,91,0.00,,,0.01,Wunderground v.1.15,2013-03-17 04:15:00,
2013-03-16 21:21:00,48.9,46.4,29.56,WNW,299,0.0,0.0,91,0.00,,,0.01,Wunderground v.1.15,2013-03-17 04:21:00,
2013-03-16 21:27:00,48.5,46.0,29.57,NNW,330,0.0,2.0,91,0.00,,,0.01,Wunderground v.1.15,2013-03-17 04:27:00,
2013-03-16 21:33:00,48.3,45.8,29.57,NNW,330,0.0,0.0,91,0.00,,,0.01,Wunderground v.1.15,2013-03-17 04:33:00,
2013-03-16 21:38:00,48.1,45.6,29.57,NNW,330,0.0,0.0,91,0.00,,,0.01,Wunderground v.1.15,2013-03-17 04:38:00,
2013-03-16 21:44:00,48.0,45.8,29.57,NNW,330,0.0,0.0,92,0.00,,,0.01,Wunderground v.1.15,2013-03-17 04:44:00,
2013-03-16 21:50:00,47.7,45.5,29.57,NW,320,0.0,0.0,92,0.00,,,0.01,Wunderground v.1.15,2013-03-17 04:50:00,
2013-03-16 21:55:00,47.6,45.4,29.57,NW,320,0.0,0.0,92,0.00,,,0.01,Wunderground v.1.15,2013-03-17 04:55:00,
2013-03-16 22:01:00,47.5,45.3,29.58,NNW,330,0.0,1.0,92,0.00,,,0.01,Wunderground v.1.15,2013-03-17 05:01:00,
2013-03-16 22:06:00,47.4,45.2,29.58,NNW,330,0.0,1.0,92,0.00,,,0.01,Wunderground v.1.15,2013-03-17 05:06:00,
2013-03-16 22:12:00,47.3,45.4,29.58,North,360,0.0,0.0,93,0.00,,,0.01,Wunderground v.1.15,2013-03-17 05:12:00,
2013-03-16 22:18:00,47.1,44.9,29.58,North,5,0.0,0.0,92,0.00,,,0.01,Wunderground v.1.15,2013-03-17 05:18:00,
2013-03-16 22:24:00,46.9,44.7,29.58,NNW,342,0.0,0.0,92,0.00,,,0.01,Wunderground v.1.15,2013-03-17 05:24:00,
2013-03-16 22:29:00,46.7,44.8,29.58,NNW,342,0.0,0.0,93,0.00,,,0.01,Wunderground v.1.15,2013-03-17 05:29:00,
2013-03-16 22:35:00,46.6,44.7,29.58,NNW,342,0.0,0.0,93,0.00,,,0.01,Wunderground v.1.15,2013-03-17 05:35:00,
2013-03-16 22:40:00,46.3,44.1,29.58,NNW,342,0.0,0.0,92,0.00,,,0.01,Wunderground v.1.15,2013-03-17 05:40:00,
2013-03-16 22:46:00,46.1,43.9,29.58,NNW,342,0.0,0.0,92,0.00,,,0.01,Wunderground v.1.15,2013-03-17 05:46:00,
2013-03-16 22:52:00,45.9,44.0,29.58,NNW,342,0.0,0.0,93,0.00,,,0.01,Wunderground v.1.15,2013-03-17 05:52:00,
2013-03-16 22:58:00,45.8,43.9,29.58,NNW,342,0.0,0.0,93,0.00,,,0.01,Wunderground v.1.15,2013-03-17 05:58:00,
2013-03-16 23:04:00,45.6,43.7,29.58,NNW,342,0.0,0.0,93,0.00,,,0.01,Wunderground v.1.15,2013-03-17 06:04:00,
2013-03-16 23:09:00,45.5,43.6,29.59,NNW,342,0.0,0.0,93,0.00,,,0.01,Wunderground v.1.15,2013-03-17 06:09:00,
2013-03-16 23:15:00,45.4,43.5,29.59,NNW,342,0.0,0.0,93,0.00,,,0.01,Wunderground v.1.15,2013-03-17 06:15:00,
2013-03-16 23:20:00,45.3,43.4,29.59,NNW,342,0.0,0.0,93,0.00,,,0.01,Wunderground v.1.15,2013-03-17 06:20:00,
2013-03-16 23:25:00,45.2,43.3,29.59,North,360,0.0,0.0,93,0.00,,,0.01,Wunderground v.1.15,2013-03-17 06:25:00,
2013-03-16 23:31:00,45.0,43.1,29.59,North,360,0.0,0.0,93,0.00,,,0.01,Wunderground v.1.15,2013-03-17 06:31:00,
2013-03-16 23:36:00,44.6,42.7,29.58,NNW,329,1.0,3.0,93,0.00,,,0.01,Wunderground v.1.15,2013-03-17 06:36:00,
2013-03-16 23:41:00,44.4,42.5,29.58,NNW,329,1.0,1.0,93,0.00,,,0.01,Wunderground v.1.15,2013-03-17 06:41:00,
2013-03-16 23:46:00,44.5,42.9,29.59,NNW,329,0.0,1.0,94,0.00,,,0.01,Wunderground v.1.15,2013-03-17 06:46:00,
2013-03-16 23:52:00,44.5,42.9,29.58,NNW,329,0.0,0.0,94,0.00,,,0.01,Wunderground v.1.15,2013-03-17 06:52:00,
2013-03-16 23:58:00,44.5,42.9,29.59,NNW,329,0.0,0.0,94,0.00,,,0.01,Wunderground v.1.15,2013-03-17 06:58:00,